sensor_id;sensor_type;location;lat;lon;timestamp;pressure;altitude;pressure_sealevel;temperature;humidity
4085;BME280;2057;50.858;6.572;2023-04-20T00:00:27;100775.03;;;8.37;61.92
4085;BME280;2057;50.858;6.572;2023-04-20T00:02:53;100774.66;;;8.31;61.78
4085;BME280;2057;50.858;6.572;2023-04-20T00:05:20;100775.44;;;8.30;61.58
4085;BME280;2057;50.858;6.572;2023-04-20T00:07:47;100770.00;;;8.24;61.57
4085;BME280;2057;50.858;6.572;2023-04-20T00:10:12;100775.25;;;8.27;61.86
4085;BME280;2057;50.858;6.572;2023-04-20T00:12:38;100774.75;;;8.19;61.17
4085;BME280;2057;50.858;6.572;2023-04-20T00:15:04;100770.47;;;8.18;61.31
4085;BME280;2057;50.858;6.572;2023-04-20T00:17:29;100764.75;;;8.07;61.42
4085;BME280;2057;50.858;6.572;2023-04-20T00:19:55;100756.38;;;8.08;61.91
4085;BME280;2057;50.858;6.572;2023-04-20T00:22:20;100752.31;;;8.10;61.58
4085;BME280;2057;50.858;6.572;2023-04-20T00:24:46;100743.53;;;8.05;62.05
4085;BME280;2057;50.858;6.572;2023-04-20T00:27:11;100738.47;;;8.05;62.20
4085;BME280;2057;50.858;6.572;2023-04-20T00:29:36;100731.09;;;8.08;62.46
4085;BME280;2057;50.858;6.572;2023-04-20T00:32:04;100722.91;;;8.12;62.00
4085;BME280;2057;50.858;6.572;2023-04-20T00:34:30;100728.66;;;8.10;62.54
4085;BME280;2057;50.858;6.572;2023-04-20T00:36:55;100727.38;;;8.03;62.13
4085;BME280;2057;50.858;6.572;2023-04-20T00:39:20;100731.28;;;7.98;62.38
4085;BME280;2057;50.858;6.572;2023-04-20T00:41:46;100727.09;;;7.98;62.82
4085;BME280;2057;50.858;6.572;2023-04-20T00:44:11;100726.22;;;7.98;62.90
4085;BME280;2057;50.858;6.572;2023-04-20T00:46:38;100724.41;;;7.95;62.26
4085;BME280;2057;50.858;6.572;2023-04-20T00:49:04;100723.50;;;7.81;61.61
4085;BME280;2057;50.858;6.572;2023-04-20T00:51:30;100717.28;;;7.90;60.32
4085;BME280;2057;50.858;6.572;2023-04-20T00:53:56;100712.16;;;7.88;60.72
4085;BME280;2057;50.858;6.572;2023-04-20T00:56:22;100707.47;;;7.94;60.32
4085;BME280;2057;50.858;6.572;2023-04-20T00:58:49;100710.78;;;7.93;59.91
4085;BME280;2057;50.858;6.572;2023-04-20T01:01:15;100701.94;;;8.00;59.58
4085;BME280;2057;50.858;6.572;2023-04-20T01:03:42;100703.47;;;7.98;59.42
4085;BME280;2057;50.858;6.572;2023-04-20T01:06:07;100700.19;;;7.99;59.07
4085;BME280;2057;50.858;6.572;2023-04-20T01:08:33;100698.03;;;8.05;57.93
4085;BME280;2057;50.858;6.572;2023-04-20T01:11:00;100696.38;;;7.92;59.24
4085;BME280;2057;50.858;6.572;2023-04-20T01:13:26;100702.97;;;7.90;58.68
4085;BME280;2057;50.858;6.572;2023-04-20T01:15:51;100686.75;;;7.87;59.45
4085;BME280;2057;50.858;6.572;2023-04-20T01:18:16;100690.47;;;7.92;58.87
4085;BME280;2057;50.858;6.572;2023-04-20T01:20:45;100684.63;;;7.93;58.58
4085;BME280;2057;50.858;6.572;2023-04-20T01:23:11;100672.81;;;8.07;58.83
4085;BME280;2057;50.858;6.572;2023-04-20T01:25:36;100674.59;;;7.81;58.81
4085;BME280;2057;50.858;6.572;2023-04-20T01:28:02;100671.78;;;7.90;58.16
4085;BME280;2057;50.858;6.572;2023-04-20T01:30:29;100660.78;;;7.89;59.00
4085;BME280;2057;50.858;6.572;2023-04-20T01:32:54;100669.53;;;7.81;58.98
4085;BME280;2057;50.858;6.572;2023-04-20T01:35:20;100663.31;;;7.89;58.82
4085;BME280;2057;50.858;6.572;2023-04-20T01:37:45;100661.97;;;7.94;59.69
4085;BME280;2057;50.858;6.572;2023-04-20T01:40:12;100660.13;;;7.78;59.51
4085;BME280;2057;50.858;6.572;2023-04-20T01:42:38;100655.94;;;7.92;59.78
4085;BME280;2057;50.858;6.572;2023-04-20T01:45:05;100653.31;;;7.91;59.83
4085;BME280;2057;50.858;6.572;2023-04-20T01:47:31;100647.94;;;7.99;60.31
4085;BME280;2057;50.858;6.572;2023-04-20T01:49:56;100646.31;;;8.00;59.49
4085;BME280;2057;50.858;6.572;2023-04-20T01:52:21;100643.09;;;8.03;59.89
4085;BME280;2057;50.858;6.572;2023-04-20T01:54:47;100642.13;;;8.00;59.61
4085;BME280;2057;50.858;6.572;2023-04-20T01:57:12;100638.03;;;8.03;59.51
4085;BME280;2057;50.858;6.572;2023-04-20T01:59:37;100642.13;;;8.00;59.32
4085;BME280;2057;50.858;6.572;2023-04-20T02:02:03;100637.19;;;7.89;59.03
4085;BME280;2057;50.858;6.572;2023-04-20T02:04:28;100637.53;;;7.95;58.91
4085;BME280;2057;50.858;6.572;2023-04-20T02:06:53;100642.81;;;7.98;59.43
4085;BME280;2057;50.858;6.572;2023-04-20T02:09:19;100634.53;;;8.00;59.63
4085;BME280;2057;50.858;6.572;2023-04-20T02:11:44;100634.06;;;7.93;59.10
4085;BME280;2057;50.858;6.572;2023-04-20T02:14:10;100635.50;;;8.03;58.60
4085;BME280;2057;50.858;6.572;2023-04-20T02:16:35;100638.44;;;7.95;59.59
4085;BME280;2057;50.858;6.572;2023-04-20T02:19:05;100629.03;;;7.93;60.52
4085;BME280;2057;50.858;6.572;2023-04-20T02:21:30;100631.09;;;8.13;60.91
4085;BME280;2057;50.858;6.572;2023-04-20T02:23:56;100625.59;;;8.06;59.89
4085;BME280;2057;50.858;6.572;2023-04-20T02:26:21;100610.72;;;7.97;59.94
4085;BME280;2057;50.858;6.572;2023-04-20T02:28:46;100611.13;;;7.76;59.33
4085;BME280;2057;50.858;6.572;2023-04-20T02:31:14;100605.47;;;7.94;59.99
4085;BME280;2057;50.858;6.572;2023-04-20T02:33:39;100602.34;;;7.98;59.45
4085;BME280;2057;50.858;6.572;2023-04-20T02:36:05;100604.75;;;8.10;59.08
4085;BME280;2057;50.858;6.572;2023-04-20T02:38:31;100600.59;;;7.97;58.42
4085;BME280;2057;50.858;6.572;2023-04-20T02:40:56;100587.59;;;7.91;58.36
4085;BME280;2057;50.858;6.572;2023-04-20T02:43:21;100578.53;;;7.94;59.29
4085;BME280;2057;50.858;6.572;2023-04-20T02:45:47;100576.28;;;7.99;57.93
4085;BME280;2057;50.858;6.572;2023-04-20T02:48:12;100569.28;;;7.95;58.84
4085;BME280;2057;50.858;6.572;2023-04-20T02:50:37;100562.31;;;7.91;58.03
4085;BME280;2057;50.858;6.572;2023-04-20T02:53:03;100564.50;;;7.99;59.50
4085;BME280;2057;50.858;6.572;2023-04-20T02:55:29;100562.41;;;7.92;58.66
4085;BME280;2057;50.858;6.572;2023-04-20T02:57:59;100560.09;;;7.82;58.34
4085;BME280;2057;50.858;6.572;2023-04-20T03:00:24;100561.44;;;7.90;58.18
4085;BME280;2057;50.858;6.572;2023-04-20T03:02:50;100557.41;;;7.79;58.72
4085;BME280;2057;50.858;6.572;2023-04-20T03:05:18;100552.75;;;7.72;57.61
4085;BME280;2057;50.858;6.572;2023-04-20T03:07:43;100552.34;;;7.65;57.73
4085;BME280;2057;50.858;6.572;2023-04-20T03:10:09;100547.97;;;7.63;57.63
4085;BME280;2057;50.858;6.572;2023-04-20T03:12:35;100542.72;;;7.60;56.89
4085;BME280;2057;50.858;6.572;2023-04-20T03:15:03;100551.03;;;7.44;56.62
4085;BME280;2057;50.858;6.572;2023-04-20T03:17:34;100545.81;;;7.69;57.72
4085;BME280;2057;50.858;6.572;2023-04-20T03:20:00;100544.97;;;7.68;57.79
4085;BME280;2057;50.858;6.572;2023-04-20T03:22:25;100540.19;;;7.73;57.60
4085;BME280;2057;50.858;6.572;2023-04-20T03:24:50;100539.22;;;7.71;57.53
4085;BME280;2057;50.858;6.572;2023-04-20T03:27:16;100541.06;;;7.74;58.54
4085;BME280;2057;50.858;6.572;2023-04-20T03:29:41;100541.25;;;7.77;57.49
4085;BME280;2057;50.858;6.572;2023-04-20T03:32:07;100539.88;;;7.40;57.31
4085;BME280;2057;50.858;6.572;2023-04-20T03:34:32;100540.22;;;7.46;58.68
4085;BME280;2057;50.858;6.572;2023-04-20T03:36:57;100543.91;;;7.51;58.84
4085;BME280;2057;50.858;6.572;2023-04-20T03:39:23;100535.66;;;7.54;59.45
4085;BME280;2057;50.858;6.572;2023-04-20T03:41:50;100535.56;;;7.52;58.63
4085;BME280;2057;50.858;6.572;2023-04-20T03:44:16;100539.91;;;7.55;59.09
4085;BME280;2057;50.858;6.572;2023-04-20T03:46:41;100538.66;;;7.62;59.59
4085;BME280;2057;50.858;6.572;2023-04-20T03:49:06;100543.63;;;7.60;59.05
4085;BME280;2057;50.858;6.572;2023-04-20T03:51:32;100531.69;;;7.44;60.10
4085;BME280;2057;50.858;6.572;2023-04-20T03:53:57;100529.34;;;7.47;59.80
4085;BME280;2057;50.858;6.572;2023-04-20T03:56:22;100531.28;;;7.65;60.09
4085;BME280;2057;50.858;6.572;2023-04-20T03:58:48;100530.63;;;7.41;59.99
4085;BME280;2057;50.858;6.572;2023-04-20T04:01:13;100533.03;;;7.52;60.22
4085;BME280;2057;50.858;6.572;2023-04-20T04:03:39;100521.56;;;7.44;59.72
4085;BME280;2057;50.858;6.572;2023-04-20T04:06:06;100526.47;;;7.41;59.57
4085;BME280;2057;50.858;6.572;2023-04-20T04:08:31;100530.63;;;7.54;58.65
4085;BME280;2057;50.858;6.572;2023-04-20T04:10:57;100527.13;;;7.52;60.21
4085;BME280;2057;50.858;6.572;2023-04-20T04:13:22;100524.09;;;7.58;59.70
4085;BME280;2057;50.858;6.572;2023-04-20T04:15:47;100511.34;;;7.56;59.95
4085;BME280;2057;50.858;6.572;2023-04-20T04:18:13;100532.03;;;7.64;61.49
4085;BME280;2057;50.858;6.572;2023-04-20T04:20:39;100534.38;;;7.61;62.80
4085;BME280;2057;50.858;6.572;2023-04-20T04:23:04;100534.19;;;7.58;66.06
4085;BME280;2057;50.858;6.572;2023-04-20T04:25:29;100523.53;;;7.48;68.78
4085;BME280;2057;50.858;6.572;2023-04-20T04:27:55;100526.44;;;7.28;73.21
4085;BME280;2057;50.858;6.572;2023-04-20T04:30:20;100532.47;;;7.16;76.15
4085;BME280;2057;50.858;6.572;2023-04-20T04:32:45;100520.84;;;7.05;76.59
4085;BME280;2057;50.858;6.572;2023-04-20T04:35:13;100522.38;;;7.03;77.08
4085;BME280;2057;50.858;6.572;2023-04-20T04:37:40;100518.91;;;7.14;75.17
4085;BME280;2057;50.858;6.572;2023-04-20T04:40:07;100504.91;;;7.06;76.22
4085;BME280;2057;50.858;6.572;2023-04-20T04:42:34;100506.94;;;6.85;77.89
4085;BME280;2057;50.858;6.572;2023-04-20T04:45:00;100508.28;;;6.80;79.51
4085;BME280;2057;50.858;6.572;2023-04-20T04:47:29;100511.09;;;6.84;78.94
4085;BME280;2057;50.858;6.572;2023-04-20T04:49:57;100515.97;;;7.08;79.62
4085;BME280;2057;50.858;6.572;2023-04-20T04:52:25;100506.34;;;7.02;78.10
4085;BME280;2057;50.858;6.572;2023-04-20T04:54:51;100502.00;;;7.13;77.69
4085;BME280;2057;50.858;6.572;2023-04-20T04:57:17;100499.00;;;7.19;78.28
4085;BME280;2057;50.858;6.572;2023-04-20T04:59:42;100506.75;;;7.35;77.53
4085;BME280;2057;50.858;6.572;2023-04-20T05:02:09;100497.91;;;7.29;78.88
4085;BME280;2057;50.858;6.572;2023-04-20T05:04:35;100507.59;;;7.36;78.56
4085;BME280;2057;50.858;6.572;2023-04-20T05:07:00;100496.16;;;7.41;78.03
4085;BME280;2057;50.858;6.572;2023-04-20T05:09:26;100508.78;;;7.41;77.26
4085;BME280;2057;50.858;6.572;2023-04-20T05:11:57;100506.34;;;7.29;75.62
4085;BME280;2057;50.858;6.572;2023-04-20T05:14:25;100508.50;;;7.36;75.04
4085;BME280;2057;50.858;6.572;2023-04-20T05:16:50;100514.13;;;7.19;77.52
4085;BME280;2057;50.858;6.572;2023-04-20T05:19:16;100516.84;;;7.22;77.57
4085;BME280;2057;50.858;6.572;2023-04-20T05:21:42;100511.91;;;7.24;79.69
4085;BME280;2057;50.858;6.572;2023-04-20T05:24:07;100507.03;;;7.13;80.22
4085;BME280;2057;50.858;6.572;2023-04-20T05:26:32;100511.19;;;7.13;79.69
4085;BME280;2057;50.858;6.572;2023-04-20T05:28:57;100517.13;;;7.00;82.99
4085;BME280;2057;50.858;6.572;2023-04-20T05:31:25;100512.84;;;6.85;84.87
4085;BME280;2057;50.858;6.572;2023-04-20T05:33:50;100512.91;;;6.60;87.97
4085;BME280;2057;50.858;6.572;2023-04-20T05:36:16;100506.88;;;6.44;90.33
4085;BME280;2057;50.858;6.572;2023-04-20T05:38:41;100514.41;;;6.70;89.12
4085;BME280;2057;50.858;6.572;2023-04-20T05:41:06;100518.47;;;6.42;90.14
4085;BME280;2057;50.858;6.572;2023-04-20T05:43:32;100509.59;;;6.22;92.02
4085;BME280;2057;50.858;6.572;2023-04-20T05:45:57;100516.94;;;6.31;92.96
4085;BME280;2057;50.858;6.572;2023-04-20T05:48:22;100525.56;;;6.35;93.90
4085;BME280;2057;50.858;6.572;2023-04-20T05:50:50;100518.91;;;6.23;94.15
4085;BME280;2057;50.858;6.572;2023-04-20T05:53:22;100515.22;;;6.18;95.39
4085;BME280;2057;50.858;6.572;2023-04-20T05:55:50;100518.88;;;6.10;97.53
4085;BME280;2057;50.858;6.572;2023-04-20T05:58:16;100519.69;;;6.22;97.78
4085;BME280;2057;50.858;6.572;2023-04-20T06:00:41;100516.50;;;6.00;99.21
4085;BME280;2057;50.858;6.572;2023-04-20T06:03:06;100516.38;;;6.10;99.78
4085;BME280;2057;50.858;6.572;2023-04-20T06:05:32;100516.16;;;6.32;98.96
4085;BME280;2057;50.858;6.572;2023-04-20T06:07:57;100515.00;;;6.15;99.81
4085;BME280;2057;50.858;6.572;2023-04-20T06:10:23;100518.69;;;6.32;98.05
4085;BME280;2057;50.858;6.572;2023-04-20T06:12:48;100521.19;;;6.32;98.25
4085;BME280;2057;50.858;6.572;2023-04-20T06:15:13;100523.72;;;6.32;97.85
4085;BME280;2057;50.858;6.572;2023-04-20T06:17:39;100523.59;;;6.31;97.13
4085;BME280;2057;50.858;6.572;2023-04-20T06:20:07;100514.13;;;6.40;97.69
4085;BME280;2057;50.858;6.572;2023-04-20T06:22:33;100509.13;;;6.53;96.53
4085;BME280;2057;50.858;6.572;2023-04-20T06:24:59;100502.03;;;6.61;96.33
4085;BME280;2057;50.858;6.572;2023-04-20T06:27:26;100497.41;;;6.67;96.45
4085;BME280;2057;50.858;6.572;2023-04-20T06:29:52;100495.38;;;6.75;96.46
4085;BME280;2057;50.858;6.572;2023-04-20T06:32:19;100493.16;;;6.80;97.55
4085;BME280;2057;50.858;6.572;2023-04-20T06:34:44;100480.03;;;6.72;97.35
4085;BME280;2057;50.858;6.572;2023-04-20T06:37:12;100487.19;;;6.52;98.53
4085;BME280;2057;50.858;6.572;2023-04-20T06:39:37;100477.88;;;6.65;100.00
4085;BME280;2057;50.858;6.572;2023-04-20T06:42:02;100480.31;;;6.77;100.00
4085;BME280;2057;50.858;6.572;2023-04-20T06:44:28;100473.44;;;6.74;99.21
4085;BME280;2057;50.858;6.572;2023-04-20T06:46:55;100474.72;;;6.81;99.07
4085;BME280;2057;50.858;6.572;2023-04-20T06:49:20;100471.88;;;6.89;97.46
4085;BME280;2057;50.858;6.572;2023-04-20T06:51:46;100474.97;;;6.72;96.72
4085;BME280;2057;50.858;6.572;2023-04-20T06:54:11;100461.97;;;6.66;97.58
4085;BME280;2057;50.858;6.572;2023-04-20T06:56:36;100465.66;;;6.57;98.04
4085;BME280;2057;50.858;6.572;2023-04-20T06:59:04;100462.09;;;6.67;99.57
4085;BME280;2057;50.858;6.572;2023-04-20T07:01:30;100465.69;;;6.71;98.39
4085;BME280;2057;50.858;6.572;2023-04-20T07:03:55;100464.72;;;6.69;98.18
4085;BME280;2057;50.858;6.572;2023-04-20T07:06:21;100470.44;;;6.80;98.92
4085;BME280;2057;50.858;6.572;2023-04-20T07:08:46;100459.69;;;6.96;98.52
4085;BME280;2057;50.858;6.572;2023-04-20T07:11:11;100456.38;;;6.97;99.56
4085;BME280;2057;50.858;6.572;2023-04-20T07:13:37;100464.91;;;6.99;99.02
4085;BME280;2057;50.858;6.572;2023-04-20T07:16:02;100469.78;;;6.96;99.41
4085;BME280;2057;50.858;6.572;2023-04-20T07:18:27;100467.41;;;6.99;99.27
4085;BME280;2057;50.858;6.572;2023-04-20T07:20:53;100472.38;;;6.97;99.07
4085;BME280;2057;50.858;6.572;2023-04-20T07:23:20;100470.91;;;7.01;100.00
4085;BME280;2057;50.858;6.572;2023-04-20T07:25:46;100469.75;;;7.09;100.00
4085;BME280;2057;50.858;6.572;2023-04-20T07:28:11;100469.28;;;7.01;100.00
4085;BME280;2057;50.858;6.572;2023-04-20T07:30:37;100459.56;;;7.07;100.00
4085;BME280;2057;50.858;6.572;2023-04-20T07:33:02;100457.53;;;6.88;100.00
4085;BME280;2057;50.858;6.572;2023-04-20T07:35:28;100450.72;;;7.01;100.00
4085;BME280;2057;50.858;6.572;2023-04-20T07:37:53;100462.00;;;6.93;100.00
4085;BME280;2057;50.858;6.572;2023-04-20T07:40:18;100464.50;;;6.93;100.00
4085;BME280;2057;50.858;6.572;2023-04-20T07:42:44;100460.25;;;6.78;100.00
4085;BME280;2057;50.858;6.572;2023-04-20T07:45:11;100462.75;;;6.65;100.00
4085;BME280;2057;50.858;6.572;2023-04-20T07:47:37;100469.75;;;6.82;100.00
4085;BME280;2057;50.858;6.572;2023-04-20T07:50:03;100468.28;;;6.86;100.00
4085;BME280;2057;50.858;6.572;2023-04-20T07:52:29;100458.50;;;6.90;100.00
4085;BME280;2057;50.858;6.572;2023-04-20T07:54:57;100464.13;;;7.00;100.00
4085;BME280;2057;50.858;6.572;2023-04-20T07:57:25;100463.44;;;7.02;100.00
4085;BME280;2057;50.858;6.572;2023-04-20T07:59:53;100464.53;;;6.79;100.00
4085;BME280;2057;50.858;6.572;2023-04-20T08:02:18;100460.81;;;6.74;100.00
4085;BME280;2057;50.858;6.572;2023-04-20T08:04:44;100456.75;;;6.89;100.00
4085;BME280;2057;50.858;6.572;2023-04-20T08:07:10;100464.59;;;6.94;100.00
4085;BME280;2057;50.858;6.572;2023-04-20T08:09:36;100451.63;;;7.01;100.00
4085;BME280;2057;50.858;6.572;2023-04-20T08:12:04;100452.56;;;7.03;100.00
4085;BME280;2057;50.858;6.572;2023-04-20T08:14:30;100452.38;;;6.87;100.00
4085;BME280;2057;50.858;6.572;2023-04-20T08:16:57;100458.72;;;6.80;100.00
4085;BME280;2057;50.858;6.572;2023-04-20T08:19:23;100457.13;;;6.82;100.00
4085;BME280;2057;50.858;6.572;2023-04-20T08:21:50;100463.25;;;6.86;100.00
4085;BME280;2057;50.858;6.572;2023-04-20T08:24:15;100455.19;;;6.65;100.00
4085;BME280;2057;50.858;6.572;2023-04-20T08:26:43;100461.81;;;6.63;100.00
4085;BME280;2057;50.858;6.572;2023-04-20T08:29:09;100459.06;;;6.73;100.00
4085;BME280;2057;50.858;6.572;2023-04-20T08:31:35;100456.16;;;6.67;100.00
4085;BME280;2057;50.858;6.572;2023-04-20T08:34:01;100444.63;;;6.97;100.00
4085;BME280;2057;50.858;6.572;2023-04-20T08:36:26;100446.34;;;7.12;100.00
4085;BME280;2057;50.858;6.572;2023-04-20T08:39:11;100444.00;;;7.15;100.00
4085;BME280;2057;50.858;6.572;2023-04-20T08:41:37;100443.13;;;7.28;100.00
4085;BME280;2057;50.858;6.572;2023-04-20T08:44:03;100437.56;;;7.33;100.00
4085;BME280;2057;50.858;6.572;2023-04-20T08:46:29;100434.19;;;7.19;100.00
4085;BME280;2057;50.858;6.572;2023-04-20T08:48:55;100435.94;;;7.20;100.00
4085;BME280;2057;50.858;6.572;2023-04-20T08:51:21;100423.91;;;7.16;100.00
4085;BME280;2057;50.858;6.572;2023-04-20T08:53:46;100429.22;;;7.34;100.00
4085;BME280;2057;50.858;6.572;2023-04-20T08:56:17;100429.66;;;7.56;100.00
4085;BME280;2057;50.858;6.572;2023-04-20T08:58:42;100427.97;;;7.56;100.00
4085;BME280;2057;50.858;6.572;2023-04-20T09:01:09;100426.75;;;7.49;100.00
4085;BME280;2057;50.858;6.572;2023-04-20T09:03:37;100429.03;;;7.60;100.00
4085;BME280;2057;50.858;6.572;2023-04-20T09:06:13;100430.72;;;7.46;100.00
4085;BME280;2057;50.858;6.572;2023-04-20T09:08:40;100426.56;;;7.46;100.00
4085;BME280;2057;50.858;6.572;2023-04-20T09:11:06;100425.44;;;7.41;100.00
4085;BME280;2057;50.858;6.572;2023-04-20T09:13:32;100430.97;;;7.64;100.00
4085;BME280;2057;50.858;6.572;2023-04-20T09:16:09;100418.34;;;7.35;100.00
4085;BME280;2057;50.858;6.572;2023-04-20T09:18:35;100420.91;;;7.50;100.00
4085;BME280;2057;50.858;6.572;2023-04-20T09:21:08;100426.84;;;7.51;100.00
4085;BME280;2057;50.858;6.572;2023-04-20T09:23:34;100415.41;;;7.43;100.00
4085;BME280;2057;50.858;6.572;2023-04-20T09:25:59;100421.25;;;7.42;100.00
4085;BME280;2057;50.858;6.572;2023-04-20T09:28:34;100413.88;;;7.31;100.00
4085;BME280;2057;50.858;6.572;2023-04-20T09:31:01;100414.38;;;7.26;100.00
4085;BME280;2057;50.858;6.572;2023-04-20T09:33:27;100412.94;;;7.16;100.00
4085;BME280;2057;50.858;6.572;2023-04-20T09:36:02;100409.28;;;7.11;100.00
4085;BME280;2057;50.858;6.572;2023-04-20T09:38:28;100421.63;;;6.93;100.00
4085;BME280;2057;50.858;6.572;2023-04-20T09:40:56;100407.75;;;6.72;100.00
4085;BME280;2057;50.858;6.572;2023-04-20T09:43:25;100409.09;;;6.81;100.00
4085;BME280;2057;50.858;6.572;2023-04-20T09:45:52;100415.31;;;6.99;100.00
4085;BME280;2057;50.858;6.572;2023-04-20T09:48:21;100415.88;;;7.09;100.00
4085;BME280;2057;50.858;6.572;2023-04-20T09:50:47;100408.34;;;7.37;100.00
4085;BME280;2057;50.858;6.572;2023-04-20T09:53:15;100414.25;;;7.66;100.00
4085;BME280;2057;50.858;6.572;2023-04-20T09:55:45;100409.13;;;7.79;100.00
4085;BME280;2057;50.858;6.572;2023-04-20T09:58:12;100408.78;;;7.73;100.00
4085;BME280;2057;50.858;6.572;2023-04-20T10:00:37;100407.75;;;7.69;100.00
4085;BME280;2057;50.858;6.572;2023-04-20T10:03:02;100404.88;;;7.50;100.00
4085;BME280;2057;50.858;6.572;2023-04-20T10:05:32;100403.22;;;7.50;100.00
4085;BME280;2057;50.858;6.572;2023-04-20T10:07:59;100408.44;;;7.67;100.00
4085;BME280;2057;50.858;6.572;2023-04-20T10:10:25;100411.78;;;7.52;100.00
4085;BME280;2057;50.858;6.572;2023-04-20T10:12:59;100411.53;;;6.93;100.00
4085;BME280;2057;50.858;6.572;2023-04-20T10:15:39;100409.59;;;6.75;100.00
4085;BME280;2057;50.858;6.572;2023-04-20T10:20:42;100406.31;;;6.63;100.00
4085;BME280;2057;50.858;6.572;2023-04-20T10:23:09;100406.97;;;6.73;100.00
4085;BME280;2057;50.858;6.572;2023-04-20T10:25:35;100424.22;;;6.54;100.00
4085;BME280;2057;50.858;6.572;2023-04-20T10:28:03;100426.47;;;6.49;100.00
4085;BME280;2057;50.858;6.572;2023-04-20T10:30:32;100417.81;;;6.32;100.00
4085;BME280;2057;50.858;6.572;2023-04-20T10:33:09;100409.88;;;6.39;100.00
4085;BME280;2057;50.858;6.572;2023-04-20T10:35:43;100404.91;;;6.27;100.00
4085;BME280;2057;50.858;6.572;2023-04-20T10:38:08;100383.78;;;6.66;100.00
4085;BME280;2057;50.858;6.572;2023-04-20T10:40:36;100389.00;;;6.96;100.00
4085;BME280;2057;50.858;6.572;2023-04-20T10:43:01;100383.63;;;7.46;100.00
4085;BME280;2057;50.858;6.572;2023-04-20T10:45:33;100387.00;;;7.90;100.00
4085;BME280;2057;50.858;6.572;2023-04-20T10:48:14;100382.06;;;7.92;100.00
4085;BME280;2057;50.858;6.572;2023-04-20T10:50:40;100380.84;;;8.00;100.00
4085;BME280;2057;50.858;6.572;2023-04-20T10:53:16;100373.25;;;8.30;100.00
4085;BME280;2057;50.858;6.572;2023-04-20T10:55:44;100376.66;;;8.30;100.00
4085;BME280;2057;50.858;6.572;2023-04-20T10:58:20;100376.75;;;8.62;100.00
4085;BME280;2057;50.858;6.572;2023-04-20T11:00:55;100368.19;;;8.60;100.00
4085;BME280;2057;50.858;6.572;2023-04-20T11:03:21;100376.00;;;8.79;100.00
4085;BME280;2057;50.858;6.572;2023-04-20T11:05:49;100376.13;;;8.66;100.00
4085;BME280;2057;50.858;6.572;2023-04-20T11:08:14;100373.09;;;8.27;100.00
4085;BME280;2057;50.858;6.572;2023-04-20T11:10:41;100375.63;;;8.27;100.00
4085;BME280;2057;50.858;6.572;2023-04-20T11:13:18;100380.94;;;8.01;100.00
4085;BME280;2057;50.858;6.572;2023-04-20T11:15:43;100372.81;;;7.92;100.00
4085;BME280;2057;50.858;6.572;2023-04-20T11:18:12;100368.28;;;8.16;100.00
4085;BME280;2057;50.858;6.572;2023-04-20T11:20:50;100369.94;;;8.31;100.00
4085;BME280;2057;50.858;6.572;2023-04-20T11:23:18;100364.53;;;8.55;100.00
4085;BME280;2057;50.858;6.572;2023-04-20T11:28:15;100357.34;;;8.94;100.00
4085;BME280;2057;50.858;6.572;2023-04-20T11:30:41;100348.34;;;8.68;100.00
4085;BME280;2057;50.858;6.572;2023-04-20T11:33:07;100351.72;;;8.83;100.00
4085;BME280;2057;50.858;6.572;2023-04-20T11:35:42;100349.16;;;9.15;100.00
4085;BME280;2057;50.858;6.572;2023-04-20T11:38:08;100343.38;;;9.17;100.00
4085;BME280;2057;50.858;6.572;2023-04-20T11:40:36;100349.69;;;8.92;100.00
4085;BME280;2057;50.858;6.572;2023-04-20T11:43:01;100345.44;;;9.08;100.00
4085;BME280;2057;50.858;6.572;2023-04-20T11:45:31;100344.81;;;8.81;100.00
4085;BME280;2057;50.858;6.572;2023-04-20T11:47:57;100340.09;;;8.87;100.00
4085;BME280;2057;50.858;6.572;2023-04-20T11:50:24;100346.66;;;8.83;100.00
4085;BME280;2057;50.858;6.572;2023-04-20T11:52:49;100352.63;;;8.69;100.00
4085;BME280;2057;50.858;6.572;2023-04-20T11:55:15;100345.09;;;8.54;100.00
4085;BME280;2057;50.858;6.572;2023-04-20T11:57:46;100345.75;;;8.66;100.00
4085;BME280;2057;50.858;6.572;2023-04-20T12:00:11;100341.34;;;8.47;100.00
4085;BME280;2057;50.858;6.572;2023-04-20T12:02:37;100344.47;;;8.58;100.00
4085;BME280;2057;50.858;6.572;2023-04-20T12:05:03;100346.53;;;8.65;100.00
4085;BME280;2057;50.858;6.572;2023-04-20T12:07:28;100352.63;;;8.69;99.64
4085;BME280;2057;50.858;6.572;2023-04-20T12:09:53;100347.09;;;8.76;99.16
4085;BME280;2057;50.858;6.572;2023-04-20T12:12:19;100348.19;;;8.96;99.35
4085;BME280;2057;50.858;6.572;2023-04-20T12:14:46;100352.16;;;9.07;97.24
4085;BME280;2057;50.858;6.572;2023-04-20T12:17:12;100353.75;;;9.05;96.16
4085;BME280;2057;50.858;6.572;2023-04-20T12:19:37;100345.75;;;9.31;98.32
4085;BME280;2057;50.858;6.572;2023-04-20T12:22:03;100348.81;;;9.41;95.74
4085;BME280;2057;50.858;6.572;2023-04-20T12:24:28;100347.34;;;9.62;95.23
4085;BME280;2057;50.858;6.572;2023-04-20T12:26:53;100338.22;;;9.65;91.85
4085;BME280;2057;50.858;6.572;2023-04-20T12:29:19;100336.38;;;9.63;90.70
4085;BME280;2057;50.858;6.572;2023-04-20T12:31:44;100347.72;;;9.53;92.85
4085;BME280;2057;50.858;6.572;2023-04-20T12:34:09;100338.03;;;9.79;92.48
4085;BME280;2057;50.858;6.572;2023-04-20T12:36:35;100344.84;;;9.80;93.07
4085;BME280;2057;50.858;6.572;2023-04-20T12:39:00;100336.53;;;9.66;88.86
4085;BME280;2057;50.858;6.572;2023-04-20T12:41:26;100340.41;;;9.76;89.99
4085;BME280;2057;50.858;6.572;2023-04-20T12:43:53;100339.59;;;9.77;91.35
4085;BME280;2057;50.858;6.572;2023-04-20T12:46:19;100337.94;;;9.77;89.05
4085;BME280;2057;50.858;6.572;2023-04-20T12:48:44;100335.94;;;10.41;88.29
4085;BME280;2057;50.858;6.572;2023-04-20T12:51:13;100333.88;;;10.88;87.44
4085;BME280;2057;50.858;6.572;2023-04-20T12:53:38;100336.13;;;10.81;84.04
4085;BME280;2057;50.858;6.572;2023-04-20T12:56:04;100330.97;;;11.18;85.55
4085;BME280;2057;50.858;6.572;2023-04-20T12:58:30;100324.09;;;10.77;78.93
4085;BME280;2057;50.858;6.572;2023-04-20T13:00:56;100327.22;;;10.72;79.25
4085;BME280;2057;50.858;6.572;2023-04-20T13:03:21;100324.59;;;10.70;80.91
4085;BME280;2057;50.858;6.572;2023-04-20T13:05:47;100326.13;;;11.24;78.66
4085;BME280;2057;50.858;6.572;2023-04-20T13:08:12;100331.16;;;11.03;77.58
4085;BME280;2057;50.858;6.572;2023-04-20T13:10:39;100335.22;;;10.99;79.35
4085;BME280;2057;50.858;6.572;2023-04-20T13:13:07;100325.81;;;10.78;77.83
4085;BME280;2057;50.858;6.572;2023-04-20T13:15:32;100331.91;;;10.82;78.85
4085;BME280;2057;50.858;6.572;2023-04-20T13:17:57;100329.41;;;11.21;80.95